Time;durP1;ratioP1;P1;durP2;ratioP2;P2;SDS_P1;SDS_P2;PMS_P1;PMS_P2;Temp;Humidity;BMP_temperature;BMP_pressure;BME280_temperature;BME280_humidity;BME280_pressure;Samples;Min_cycle;Max_cycle;Signal;HPM_P1;HPM_P2
2023/01/27 00:00:50;;;;;;;12.00;7.50;;;;;;;0.30;73.21;96823.03;6246280;23;20035;-73
2023/01/27 00:03:18;;;;;;;12.60;7.38;;;;;;;0.34;73.41;96812.44;6246048;23;20387;-74
2023/01/27 00:05:46;;;;;;;12.90;7.75;;;;;;;0.39;73.39;96814.66;6246470;23;20020;-73
2023/01/27 00:08:16;;;;;;;11.48;7.35;;;;;;;0.40;73.00;96819.69;6245045;23;20103;-74
2023/01/27 00:10:44;;;;;;;12.18;7.22;;;;;;;0.40;73.20;96817.13;6246432;23;20051;-74
2023/01/27 00:13:27;;;;;;;13.70;6.70;;;;;;;0.42;73.83;96814.47;6245738;23;20107;-73
2023/01/27 00:15:56;;;;;;;10.27;6.68;;;;;;;0.43;73.46;96823.78;6246191;23;20020;-74
2023/01/27 00:18:24;;;;;;;12.32;6.95;;;;;;;0.40;73.46;96817.13;6245103;23;20099;-73
2023/01/27 00:26:23;;;;;;;11.68;6.70;;;;;;;0.26;72.69;96809.63;6246140;23;20451;-74
2023/01/27 00:28:50;;;;;;;12.10;7.82;;;;;;;0.25;73.35;96808.00;6245466;23;20061;-74
2023/01/27 00:34:08;;;;;;;11.48;6.38;;;;;;;0.24;72.48;96813.22;6245373;23;20020;-73
2023/01/27 00:36:38;;;;;;;9.60;6.53;;;;;;;0.22;73.10;96818.50;6245982;23;20020;-74
2023/01/27 00:39:06;;;;;;;11.52;7.18;;;;;;;0.21;72.69;96821.97;6245007;23;20070;-73
2023/01/27 00:41:34;;;;;;;10.82;6.93;;;;;;;0.15;72.53;96813.00;6246147;23;20043;-73
2023/01/27 00:44:04;;;;;;;12.43;7.22;;;;;;;0.13;72.11;96819.97;6246388;23;20067;-74
2023/01/27 00:46:33;;;;;;;9.77;6.55;;;;;;;0.09;72.58;96816.00;6246109;23;20015;-74
2023/01/27 00:49:01;;;;;;;11.77;7.22;;;;;;;0.10;72.85;96821.94;6244595;23;20028;-73
2023/01/27 00:51:28;;;;;;;10.23;6.47;;;;;;;0.13;72.97;96809.72;6245409;23;20495;-74
2023/01/27 00:53:58;;;;;;;11.13;7.10;;;;;;;0.15;72.69;96817.28;6245946;23;20460;-74
2023/01/27 00:56:27;;;;;;;9.07;6.55;;;;;;;0.18;72.85;96817.06;6249943;23;20108;-73
2023/01/27 00:58:54;;;;;;;10.35;7.13;;;;;;;0.21;72.43;96821.97;6270331;22;20047;-74
2023/01/27 01:01:22;;;;;;;10.15;6.30;;;;;;;0.20;71.78;96816.03;6270826;23;20061;-73
2023/01/27 01:03:51;;;;;;;9.40;6.05;;;;;;;0.18;71.45;96822.22;6270815;23;20020;-74
2023/01/27 01:06:19;;;;;;;10.57;6.57;;;;;;;0.18;71.26;96823.03;6265995;23;20260;-74
2023/01/27 01:08:47;;;;;;;9.32;5.88;;;;;;;0.19;71.16;96821.25;6244690;23;20068;-74
2023/01/27 01:11:16;;;;;;;10.07;6.22;;;;;;;0.20;72.04;96821.16;6245275;23;20016;-74
2023/01/27 01:13:44;;;;;;;8.57;6.05;;;;;;;0.28;72.36;96823.16;6245608;23;20020;-73
2023/01/27 01:16:15;;;;;;;8.77;5.95;;;;;;;0.32;72.37;96819.44;6251425;23;20012;-74
2023/01/27 01:18:43;;;;;;;8.13;5.85;;;;;;;0.36;72.86;96817.47;6244844;23;20024;-74
2023/01/27 01:21:13;;;;;;;10.93;6.75;;;;;;;0.35;72.06;96819.22;6245447;23;20047;-73
2023/01/27 01:23:43;;;;;;;10.23;6.93;;;;;;;0.35;72.82;96821.78;6245348;23;20034;-74
2023/01/27 01:26:12;;;;;;;15.15;7.43;;;;;;;0.35;71.84;96829.50;6245516;23;20020;-74
2023/01/27 01:28:39;;;;;;;13.20;7.38;;;;;;;0.31;71.85;96820.38;6244517;23;20074;-74
2023/01/27 01:31:08;;;;;;;11.88;7.57;;;;;;;0.32;72.48;96814.31;6245739;23;20031;-74
2023/01/27 01:33:37;;;;;;;10.77;7.60;;;;;;;0.33;71.79;96815.97;6244923;23;20090;-74
2023/01/27 01:36:06;;;;;;;10.27;7.30;;;;;;;0.30;71.29;96821.28;6245366;23;20099;-74
2023/01/27 01:38:35;;;;;;;10.23;6.35;;;;;;;0.29;70.92;96824.00;6244644;23;20055;-73
2023/01/27 01:41:02;;;;;;;10.23;6.68;;;;;;;0.27;71.29;96826.66;6245539;23;20027;-74
2023/01/27 01:43:30;;;;;;;11.95;6.93;;;;;;;0.29;71.32;96819.66;6246029;23;20095;-74
2023/01/27 01:45:58;;;;;;;10.90;7.45;;;;;;;0.32;72.12;96813.50;6247345;23;20048;-74
2023/01/27 01:48:32;;;;;;;11.93;7.90;;;;;;;0.36;71.53;96814.91;6246536;23;20035;-74
2023/01/27 01:51:04;;;;;;;13.90;7.32;;;;;;;0.35;71.28;96815.81;6247693;23;20026;-74
2023/01/27 01:53:38;;;;;;;10.77;7.30;;;;;;;0.34;70.85;96807.31;6247629;23;20102;-73
2023/01/27 01:56:12;;;;;;;11.43;7.15;;;;;;;0.35;72.06;96800.44;6247219;23;20020;-74
2023/01/27 01:58:40;;;;;;;11.07;7.05;;;;;;;0.36;71.33;96800.31;6246937;23;20020;-74
2023/01/27 02:01:14;;;;;;;10.90;7.25;;;;;;;0.34;71.27;96797.03;6247195;23;20034;-74
2023/01/27 02:03:46;;;;;;;12.70;7.40;;;;;;;0.32;70.47;96804.03;6247319;23;20020;-73
2023/01/27 02:06:14;;;;;;;11.00;7.22;;;;;;;0.32;70.94;96808.34;6247183;23;20013;-74
2023/01/27 02:08:46;;;;;;;9.80;6.57;;;;;;;0.32;70.80;96819.44;6246162;23;20024;-74
2023/01/27 02:11:13;;;;;;;10.65;7.00;;;;;;;0.30;70.74;96810.22;6246696;23;20020;-74
2023/01/27 02:13:42;;;;;;;11.85;7.93;;;;;;;0.24;70.51;96811.50;6247202;23;20048;-73
2023/01/27 02:16:11;;;;;;;11.40;7.25;;;;;;;0.19;70.54;96808.44;6247341;23;20024;-73
2023/01/27 02:18:40;;;;;;;11.15;6.75;;;;;;;0.18;70.69;96801.69;6246656;23;20074;-74
2023/01/27 02:21:09;;;;;;;11.35;6.63;;;;;;;0.17;70.63;96795.72;6247437;23;20095;-74
2023/01/27 02:23:48;;;;;;;10.23;6.93;;;;;;;0.17;70.17;96797.47;6246857;23;20333;-74
2023/01/27 02:26:20;;;;;;;11.23;7.60;;;;;;;0.20;70.99;96795.50;6247749;23;20091;-74
2023/01/27 02:28:53;;;;;;;12.45;7.18;;;;;;;0.23;71.04;96789.31;6255374;23;20016;-74
2023/01/27 02:31:21;;;;;;;10.05;6.75;;;;;;;0.25;70.54;96795.16;6258804;23;20028;-74
2023/01/27 02:33:49;;;;;;;10.27;6.53;;;;;;;0.30;71.43;96790.50;6248613;23;20023;-74
2023/01/27 02:36:18;;;;;;;10.35;6.97;;;;;;;0.36;71.68;96792.63;6247016;23;20103;-74
2023/01/27 02:38:47;;;;;;;11.93;7.68;;;;;;;0.41;72.93;96792.28;6246429;23;20016;-74
2023/01/27 02:41:21;;;;;;;13.30;8.13;;;;;;;0.38;70.77;96793.31;6247094;23;20016;-74
2023/01/27 02:43:49;;;;;;;13.27;7.28;;;;;;;0.32;70.60;96792.97;6246719;23;20095;-74
2023/01/27 02:46:16;;;;;;;12.52;7.32;;;;;;;0.29;70.45;96795.78;6246577;23;20016;-74
2023/01/27 02:48:44;;;;;;;11.38;6.60;;;;;;;0.31;71.67;96799.84;6246000;23;20016;-74
2023/01/27 02:51:12;;;;;;;11.15;7.22;;;;;;;0.32;71.12;96793.78;6246404;23;20030;-74
2023/01/27 02:53:39;;;;;;;10.30;6.50;;;;;;;0.31;70.28;96789.59;6247117;23;20055;-74
2023/01/27 02:56:07;;;;;;;11.38;7.28;;;;;;;0.28;70.08;96794.94;6247263;23;20039;-73
2023/01/27 02:58:36;;;;;;;11.90;7.22;;;;;;;0.25;69.92;96792.59;6245957;23;20051;-74
2023/01/27 03:01:04;;;;;;;9.90;6.75;;;;;;;0.24;70.24;96785.84;6246860;23;20062;-74
2023/01/27 03:03:32;;;;;;;9.52;6.85;;;;;;;0.23;69.97;96799.59;6246966;23;20209;-73
2023/01/27 03:05:59;;;;;;;10.80;7.13;;;;;;;0.19;70.21;96790.47;6247031;23;20091;-73
2023/01/27 03:08:27;;;;;;;12.30;6.65;;;;;;;0.18;70.04;96801.69;6246184;23;20020;-74
2023/01/27 03:10:55;;;;;;;11.32;7.55;;;;;;;0.13;69.95;96793.50;6246800;23;20094;-73
2023/01/27 03:13:23;;;;;;;12.68;8.80;;;;;;;0.10;69.86;96798.84;6246926;23;20024;-74
2023/01/27 03:18:46;;;;;;;12.30;8.05;;;;;;;-0.01;70.06;96797.06;6245811;23;20121;-73
2023/01/27 03:21:14;;;;;;;11.43;7.63;;;;;;;-0.02;70.02;96803.94;6246919;23;20052;-74
2023/01/27 03:23:44;;;;;;;11.60;7.28;;;;;;;-0.04;70.21;96808.38;6246603;23;20020;-74
2023/01/27 03:26:12;;;;;;;12.88;8.02;;;;;;;-0.06;70.16;96807.66;6246628;23;20023;-74
2023/01/27 03:28:40;;;;;;;14.32;8.93;;;;;;;-0.05;70.43;96800.78;6245614;23;20099;-73
2023/01/27 03:31:18;;;;;;;14.68;8.48;;;;;;;-0.06;69.78;96804.28;6246655;23;20021;-74
2023/01/27 03:33:46;;;;;;;18.17;7.82;;;;;;;-0.09;69.94;96805.31;6238331;22;20040;-76
2023/01/27 03:47:16;;;;;;;12.48;8.90;;;;;;;-0.22;69.85;96802.81;6245727;23;20020;-77
2023/01/27 03:49:44;;;;;;;11.15;7.45;;;;;;;-0.24;70.16;96803.84;6244708;23;20103;-76
2023/01/27 03:52:11;;;;;;;12.13;7.13;;;;;;;-0.24;70.31;96801.28;6245753;23;20056;-76
2023/01/27 03:54:38;;;;;;;13.43;7.97;;;;;;;-0.24;70.19;96798.72;6245566;23;20027;-76
2023/01/27 03:57:06;;;;;;;12.27;7.68;;;;;;;-0.21;70.38;96795.94;6245977;23;20027;-76
2023/01/27 03:59:33;;;;;;;14.30;8.48;;;;;;;-0.21;70.24;96806.19;6244508;23;20024;-77
2023/01/27 04:07:34;;;;;;;12.57;7.85;;;;;;;-0.22;69.88;96795.13;6245401;23;20348;-76
2023/01/27 04:10:02;;;;;;;13.60;7.85;;;;;;;-0.25;69.71;96797.91;6244779;23;20026;-77
2023/01/27 04:12:28;;;;;;;13.43;7.90;;;;;;;-0.26;70.24;96800.59;6245703;23;20056;-77
2023/01/27 04:14:56;;;;;;;12.23;7.72;;;;;;;-0.26;70.53;96809.09;6245453;23;20381;-76
2023/01/27 04:17:24;;;;;;;15.88;8.90;;;;;;;-0.25;70.38;96807.34;6249517;23;20026;-77
2023/01/27 04:19:53;;;;;;;15.10;8.80;;;;;;;-0.26;70.24;96818.53;6249145;23;20030;-77
2023/01/27 04:22:20;;;;;;;12.63;7.95;;;;;;;-0.27;70.21;96824.56;6248140;23;20562;-77
2023/01/27 04:24:49;;;;;;;16.00;8.23;;;;;;;-0.29;70.79;96816.16;6245375;23;20020;-76
2023/01/27 04:27:17;;;;;;;14.43;7.88;;;;;;;-0.29;70.47;96822.09;6245277;23;20357;-76
2023/01/27 04:29:45;;;;;;;13.77;8.40;;;;;;;-0.29;70.33;96819.53;6244860;23;20028;-76
2023/01/27 04:32:14;;;;;;;12.85;7.65;;;;;;;-0.31;70.23;96818.84;6245322;23;20020;-77
2023/01/27 04:34:42;;;;;;;15.90;8.65;;;;;;;-0.31;70.40;96825.72;6244813;23;20388;-76
2023/01/27 04:37:10;;;;;;;15.15;8.98;;;;;;;-0.31;70.83;96825.72;6244870;23;20016;-76
2023/01/27 04:39:38;;;;;;;15.82;9.75;;;;;;;-0.29;70.68;96829.00;6244473;23;20020;-77
2023/01/27 04:42:06;;;;;;;16.50;8.35;;;;;;;-0.29;71.12;96818.72;6245196;23;20080;-77
2023/01/27 04:44:33;;;;;;;14.27;8.85;;;;;;;-0.29;70.91;96823.88;6245696;23;20028;-76
2023/01/27 04:47:01;;;;;;;14.70;8.68;;;;;;;-0.30;70.56;96825.63;6245693;23;20026;-76
2023/01/27 04:49:28;;;;;;;13.48;8.38;;;;;;;-0.32;71.00;96819.78;6244405;23;20063;-77
2023/01/27 04:51:56;;;;;;;15.50;9.05;;;;;;;-0.33;70.78;96819.88;6245514;23;20419;-76
2023/01/27 04:54:24;;;;;;;14.45;9.35;;;;;;;-0.36;70.49;96827.78;6244813;23;20020;-76
2023/01/27 04:56:56;;;;;;;14.15;9.35;;;;;;;-0.40;70.38;96816.13;6245352;23;20079;-77
2023/01/27 04:59:23;;;;;;;15.88;8.82;;;;;;;-0.45;70.74;96832.63;6244575;23;20099;-76
2023/01/27 05:01:51;;;;;;;12.95;7.88;;;;;;;-0.47;70.96;96839.59;6245116;23;20020;-76
2023/01/27 05:04:19;;;;;;;13.45;8.68;;;;;;;-0.47;70.84;96837.03;6245176;23;20020;-77
2023/01/27 05:06:46;;;;;;;13.00;8.05;;;;;;;-0.45;70.89;96840.31;6245242;23;20364;-77
2023/01/27 05:09:14;;;;;;;12.68;8.02;;;;;;;-0.42;70.59;96829.88;6243812;23;20055;-76
2023/01/27 05:11:43;;;;;;;13.23;8.13;;;;;;;-0.42;70.76;96824.75;6253460;23;20047;-77
2023/01/27 05:14:12;;;;;;;14.15;8.45;;;;;;;-0.42;70.51;96832.44;6267842;23;20439;-77
2023/01/27 05:16:40;;;;;;;14.50;8.23;;;;;;;-0.40;70.87;96834.88;6268001;23;20067;-76
2023/01/27 05:19:08;;;;;;;16.17;9.07;;;;;;;-0.40;70.41;96831.50;6250400;23;20530;-77
2023/01/27 05:21:36;;;;;;;15.15;8.85;;;;;;;-0.40;70.61;96826.38;6250503;23;20020;-76
2023/01/27 05:24:04;;;;;;;13.38;8.43;;;;;;;-0.44;70.64;96834.28;6249899;23;20020;-77
2023/01/27 05:26:31;;;;;;;15.40;9.10;;;;;;;-0.43;70.71;96829.97;6248125;23;20024;-76
2023/01/27 05:29:00;;;;;;;15.23;8.70;;;;;;;-0.44;70.73;96831.72;6246951;23;20013;-76
2023/01/27 05:31:30;;;;;;;15.15;8.93;;;;;;;-0.42;70.72;96818.78;6247665;23;20414;-75
2023/01/27 05:33:59;;;;;;;14.15;9.00;;;;;;;-0.42;70.81;96823.91;6246669;23;20099;-76
2023/01/27 05:36:27;;;;;;;12.88;8.77;;;;;;;-0.40;70.51;96827.19;6247088;23;20114;-76
2023/01/27 05:38:55;;;;;;;14.95;9.20;;;;;;;-0.41;70.43;96835.81;6245842;23;20020;-76
2023/01/27 05:41:23;;;;;;;15.48;9.30;;;;;;;-0.39;70.47;96828.00;6246284;23;20027;-76
2023/01/27 05:43:52;;;;;;;15.77;8.77;;;;;;;-0.39;70.58;96828.00;6246455;23;20020;-77
2023/01/27 05:46:23;;;;;;;14.40;8.27;;;;;;;-0.34;71.06;96846.44;6246764;23;20031;-76
2023/01/27 05:48:53;;;;;;;13.35;8.75;;;;;;;-0.29;71.66;96847.75;6246362;23;20095;-77
2023/01/27 05:51:22;;;;;;;15.50;9.63;;;;;;;-0.23;71.10;96842.19;6242587;23;20024;-75
2023/01/27 05:53:50;;;;;;;14.93;9.13;;;;;;;-0.21;70.64;96842.09;6246334;23;20078;-76
2023/01/27 05:56:18;;;;;;;14.23;8.82;;;;;;;-0.18;71.00;96852.13;6246426;23;20408;-76
2023/01/27 05:58:46;;;;;;;14.65;8.32;;;;;;;-0.18;70.38;96854.69;6245618;23;20070;-76
2023/01/27 06:01:15;;;;;;;16.83;9.30;;;;;;;-0.22;70.12;96854.09;6246358;23;20020;-76
2023/01/27 06:03:46;;;;;;;14.10;8.63;;;;;;;-0.22;69.87;96848.97;6245977;23;20480;-76
2023/01/27 06:06:15;;;;;;;14.43;8.38;;;;;;;-0.22;69.88;96853.25;6246135;23;20039;-76
2023/01/27 06:08:44;;;;;;;14.38;8.35;;;;;;;-0.17;70.97;96864.03;6245388;23;20091;-76
2023/01/27 06:11:12;;;;;;;16.42;9.20;;;;;;;-0.15;70.57;96861.31;6245658;23;20020;-76
2023/01/27 06:13:40;;;;;;;12.43;7.95;;;;;;;-0.21;69.81;96865.16;6246480;23;20361;-75
2023/01/27 06:16:10;;;;;;;12.93;7.25;;;;;;;-0.28;69.60;96856.28;6246923;23;20087;-76
2023/01/27 06:18:38;;;;;;;13.02;8.27;;;;;;;-0.32;69.43;96857.41;6246199;23;20480;-78
2023/01/27 06:21:09;;;;;;;12.30;7.43;;;;;;;-0.37;69.71;96854.34;6246024;23;20429;-76
2023/01/27 06:23:38;;;;;;;13.90;8.13;;;;;;;-0.37;69.70;96851.78;6257008;23;20031;-78
2023/01/27 06:26:09;;;;;;;12.43;8.05;;;;;;;-0.39;69.37;96833.13;6273377;22;20024;-76
2023/01/27 06:28:36;;;;;;;15.30;7.55;;;;;;;-0.40;69.64;96847.69;6270995;22;20060;-77
2023/01/27 06:31:06;;;;;;;15.48;8.63;;;;;;;-0.39;70.53;96866.44;6247391;23;20024;-76
2023/01/27 06:33:33;;;;;;;14.13;8.73;;;;;;;-0.35;71.11;96870.44;6245661;23;20031;-76
2023/01/27 06:36:02;;;;;;;16.30;9.65;;;;;;;-0.33;70.39;96873.69;6245311;23;20091;-77
2023/01/27 06:38:31;;;;;;;19.38;10.20;;;;;;;-0.30;70.07;96886.31;6243912;23;20020;-76
2023/01/27 06:40:59;;;;;;;15.55;9.13;;;;;;;-0.30;69.87;96894.00;6243995;23;20359;-76
2023/01/27 06:43:27;;;;;;;15.43;8.20;;;;;;;-0.29;70.28;96896.44;6246996;23;20026;-76
2023/01/27 06:45:56;;;;;;;15.60;9.15;;;;;;;-0.27;70.51;96888.66;6247164;23;20056;-76
2023/01/27 06:48:24;;;;;;;17.02;9.98;;;;;;;-0.26;70.09;96890.31;6246642;23;20026;-76
2023/01/27 06:50:52;;;;;;;15.30;9.52;;;;;;;-0.26;69.78;96896.25;6246488;23;20016;-76
2023/01/27 06:53:20;;;;;;;15.25;9.85;;;;;;;-0.29;69.94;96903.31;6246792;23;20042;-76
2023/01/27 06:55:55;;;;;;;16.85;10.98;;;;;;;-0.31;69.94;96900.06;6246130;23;20042;-76
2023/01/27 06:58:22;;;;;;;16.45;9.95;;;;;;;-0.26;71.39;96903.13;6245708;23;20481;-76
2023/01/27 07:00:50;;;;;;;16.40;10.07;;;;;;;-0.17;72.35;96904.25;6246471;23;20020;-76
2023/01/27 07:03:18;;;;;;;16.27;10.15;;;;;;;-0.09;73.04;96899.38;6246895;23;20104;-76
2023/01/27 07:05:46;;;;;;;19.45;10.48;;;;;;;0.01;72.91;96904.69;6245845;23;20012;-76
2023/01/27 07:08:13;;;;;;;16.75;10.85;;;;;;;0.07;73.11;96912.75;6245643;23;20020;-76
2023/01/27 07:10:41;;;;;;;18.02;9.82;;;;;;;0.11;73.02;96913.34;6246938;23;20027;-77
2023/01/27 07:13:12;;;;;;;20.23;10.68;;;;;;;0.17;73.29;96912.91;6247413;23;20039;-76
2023/01/27 07:15:40;;;;;;;20.35;10.60;;;;;;;0.15;71.78;96904.50;6247004;23;20046;-77
2023/01/27 07:18:08;;;;;;;18.48;10.50;;;;;;;0.11;72.08;96908.22;6245682;23;20022;-76
2023/01/27 07:20:35;;;;;;;19.10;11.50;;;;;;;0.08;71.42;96916.13;6247383;23;20016;-76
2023/01/27 07:23:05;;;;;;;17.92;9.95;;;;;;;0.06;71.07;96920.56;6246609;23;20024;-76
2023/01/27 07:25:34;;;;;;;21.83;11.15;;;;;;;0.03;70.74;96918.22;6246452;23;20018;-76
2023/01/27 07:28:02;;;;;;;20.98;11.60;;;;;;;-0.03;70.48;96917.69;6259414;23;20024;-76
2023/01/27 07:30:33;;;;;;;19.65;10.75;;;;;;;-0.03;71.62;96916.88;6269204;23;20059;-77
2023/01/27 07:33:04;;;;;;;19.30;11.15;;;;;;;-0.03;70.96;96912.56;6254601;23;20475;-76
2023/01/27 07:35:31;;;;;;;18.83;10.50;;;;;;;-0.03;70.88;96924.59;6247795;23;20020;-76
2023/01/27 07:37:59;;;;;;;23.00;12.82;;;;;;;-0.04;70.80;96923.78;6246319;23;20103;-76
2023/01/27 07:40:26;;;;;;;21.10;11.52;;;;;;;-0.02;70.99;96931.38;6245848;23;20464;-76
2023/01/27 07:42:57;;;;;;;21.30;11.38;;;;;;;-0.03;70.64;96945.09;6246216;23;20020;-76
2023/01/27 07:45:25;;;;;;;21.52;11.32;;;;;;;-0.07;70.81;96946.22;6246437;23;20019;-76
2023/01/27 07:48:00;;;;;;;23.17;12.57;;;;;;;-0.11;71.09;96945.66;6246236;23;20024;-76
2023/01/27 07:50:27;;;;;;;23.33;12.18;;;;;;;-0.11;70.89;96950.78;6248020;23;20051;-76
2023/01/27 07:52:58;;;;;;;19.27;11.55;;;;;;;-0.10;71.21;96954.97;6250338;23;20098;-76
2023/01/27 07:55:26;;;;;;;20.25;10.95;;;;;;;-0.08;71.27;96954.88;6250567;23;20408;-76
2023/01/27 07:57:54;;;;;;;21.65;10.02;;;;;;;-0.10;70.72;96949.84;6247409;23;20031;-77
2023/01/27 08:00:22;;;;;;;21.15;10.45;;;;;;;-0.14;71.10;96961.22;6247102;23;20098;-76
2023/01/27 08:02:50;;;;;;;19.38;9.32;;;;;;;-0.16;71.64;96955.38;6246524;23;20253;-76
2023/01/27 08:05:21;;;;;;;20.20;10.52;;;;;;;-0.14;71.31;96960.41;6245833;23;20372;-76
2023/01/27 08:07:49;;;;;;;17.52;9.60;;;;;;;-0.15;71.06;96958.75;6245370;23;20381;-77
2023/01/27 08:10:17;;;;;;;20.13;9.88;;;;;;;-0.17;71.30;96964.03;6245699;23;20095;-76
2023/01/27 08:12:45;;;;;;;18.48;9.80;;;;;;;-0.17;71.13;96961.44;6246072;23;20506;-76
2023/01/27 08:15:13;;;;;;;14.93;9.05;;;;;;;-0.18;70.99;96964.94;6246498;23;20385;-76
2023/01/27 08:17:44;;;;;;;17.85;9.15;;;;;;;-0.15;71.52;96963.88;6245214;23;20024;-76
2023/01/27 08:20:12;;;;;;;18.95;9.95;;;;;;;-0.13;71.26;96959.47;6245675;23;20026;-76
2023/01/27 08:22:42;;;;;;;18.17;9.45;;;;;;;-0.15;71.06;96946.78;6245575;23;20448;-76
2023/01/27 08:25:10;;;;;;;16.70;9.07;;;;;;;-0.14;71.20;96942.47;6245622;23;20059;-76
2023/01/27 08:27:37;;;;;;;18.35;9.25;;;;;;;-0.14;71.14;96939.91;6245931;23;20020;-76
2023/01/27 08:30:06;;;;;;;19.67;9.02;;;;;;;-0.15;71.02;96944.22;6244346;23;20098;-76
2023/01/27 08:32:34;;;;;;;17.95;9.05;;;;;;;-0.16;70.97;96947.69;6245617;23;20016;-76
2023/01/27 08:35:01;;;;;;;19.70;9.27;;;;;;;-0.19;71.18;96942.78;6245062;23;20020;-76
2023/01/27 08:37:29;;;;;;;15.25;7.90;;;;;;;-0.21;70.91;96950.59;6245016;23;20016;-76
2023/01/27 08:39:58;;;;;;;17.63;9.15;;;;;;;-0.24;71.06;96955.09;6244209;23;20016;-76
2023/01/27 08:42:25;;;;;;;25.20;9.65;;;;;;;-0.26;71.35;96960.34;6245144;23;20026;-76
2023/01/27 08:44:53;;;;;;;18.58;9.73;;;;;;;-0.25;71.21;96961.16;6244926;23;20027;-76
2023/01/27 08:47:21;;;;;;;16.08;8.60;;;;;;;-0.23;71.91;96949.06;6245356;23;20042;-76
2023/01/27 08:49:48;;;;;;;18.83;9.02;;;;;;;-0.22;71.41;96948.13;6244284;23;20016;-76
2023/01/27 08:52:16;;;;;;;18.05;9.80;;;;;;;-0.24;71.65;96953.38;6245489;23;20051;-76
2023/01/27 08:54:43;;;;;;;18.02;9.70;;;;;;;-0.25;71.70;96949.16;6245431;23;20103;-77
2023/01/27 08:57:12;;;;;;;16.65;8.73;;;;;;;-0.25;71.52;96953.47;6245310;23;20024;-76
2023/01/27 08:59:40;;;;;;;20.00;10.45;;;;;;;-0.27;71.67;96956.13;6254408;23;20010;-77
2023/01/27 09:02:09;;;;;;;17.85;9.18;;;;;;;-0.28;71.38;96956.25;6269641;23;20040;-77
2023/01/27 09:04:40;;;;;;;15.82;8.38;;;;;;;-0.30;71.50;96952.97;6270590;23;20031;-76
2023/01/27 09:07:08;;;;;;;16.52;9.02;;;;;;;-0.26;71.72;96964.66;6253317;23;20074;-76
2023/01/27 09:09:35;;;;;;;16.95;9.27;;;;;;;-0.22;71.72;96963.50;6249430;23;20043;-76
2023/01/27 09:12:03;;;;;;;18.17;8.77;;;;;;;-0.19;71.25;96965.88;6248353;23;20100;-76
2023/01/27 09:14:32;;;;;;;16.52;9.50;;;;;;;-0.17;71.44;96965.78;6245948;23;20017;-76
2023/01/27 09:17:00;;;;;;;17.25;9.10;;;;;;;-0.18;71.23;96959.81;6246116;23;20099;-76
2023/01/27 09:19:27;;;;;;;18.23;9.68;;;;;;;-0.14;71.53;96962.97;6244368;23;20025;-76
2023/01/27 09:21:55;;;;;;;19.55;8.40;;;;;;;-0.12;71.49;96959.38;6245177;23;20024;-77
2023/01/27 09:24:22;;;;;;;17.20;10.00;;;;;;;-0.12;71.05;96958.56;6245339;23;20016;-76
2023/01/27 09:26:50;;;;;;;15.73;8.48;;;;;;;-0.11;71.26;96960.19;6245445;23;20345;-76
2023/01/27 09:29:18;;;;;;;20.33;10.35;;;;;;;-0.08;71.47;96965.13;6243971;23;20020;-76
2023/01/27 09:31:47;;;;;;;16.98;8.00;;;;;;;-0.07;71.19;96961.63;6245307;23;20016;-76
2023/01/27 09:34:16;;;;;;;20.35;10.43;;;;;;;-0.05;71.42;96963.16;6245085;23;20051;-76
2023/01/27 09:36:49;;;;;;;14.20;7.68;;;;;;;-0.03;71.02;96968.19;6225094;22;20409;-83
2023/01/27 09:39:17;;;;;;;;;;;;;;;-0.02;70.87;96965.53;6223892;23;20380;-80
2023/01/27 09:42:07;;;;;;;17.42;8.68;;;;;;;-0.06;70.75;96969.22;6223473;23;19920;-82
2023/01/27 09:44:59;;;;;;;16.05;7.60;;;;;;;-0.05;70.98;96963.16;6224288;23;20025;-80
2023/01/27 09:47:50;;;;;;;16.23;8.27;;;;;;;-0.06;70.23;96958.97;6194234;23;20028;-79
2023/01/27 09:50:37;;;;;;;14.18;7.65;;;;;;;-0.03;70.62;96969.00;6194532;23;20032;-82
2023/01/27 09:53:25;;;;;;;14.10;7.50;;;;;;;0.03;70.31;96972.06;6196589;23;20028;-80
2023/01/27 09:55:58;;;;;;;13.93;6.80;;;;;;;0.04;70.16;96977.06;6195699;23;20025;-81
2023/01/27 09:58:32;;;;;;;;;;;;;;;0.09;69.98;96977.59;6195680;23;20027;-80
2023/01/27 10:01:10;;;;;;;13.95;7.28;;;;;;;0.05;70.23;96980.47;6196606;23;19916;-82
2023/01/27 10:04:18;;;;;;;11.07;6.97;;;;;;;0.04;70.38;96983.97;6195433;23;20357;-83
2023/01/27 10:06:56;;;;;;;11.88;7.07;;;;;;;0.04;70.03;96978.84;6197658;23;20025;-82
2023/01/27 10:09:56;;;;;;;13.90;8.23;;;;;;;0.03;70.06;96992.59;6196262;23;20021;-81
2023/01/27 10:12:34;;;;;;;15.43;7.60;;;;;;;0.02;70.21;96994.31;6190519;23;20056;-80
2023/01/27 10:15:16;;;;;;;15.38;8.80;;;;;;;0.04;70.31;96995.03;6197112;23;20025;-80
2023/01/27 10:17:51;;;;;;;15.70;8.60;;;;;;;0.08;70.60;97000.78;6197841;23;20467;-77
2023/01/27 10:20:29;;;;;;;12.85;7.90;;;;;;;0.09;69.92;96997.28;6196139;23;20259;-83
2023/01/27 10:23:08;;;;;;;15.63;8.02;;;;;;;0.08;70.00;97008.47;6195795;23;20053;-82
2023/01/27 10:25:51;;;;;;;16.23;8.90;;;;;;;0.05;70.04;97011.25;6195857;23;20353;-82
2023/01/27 10:28:23;;;;;;;12.32;7.20;;;;;;;0.03;70.15;97013.13;6194966;23;20025;-83
2023/01/27 10:30:58;;;;;;;15.77;8.75;;;;;;;-0.01;69.97;97015.88;6195087;23;20095;-80
2023/01/27 10:33:38;;;;;;;15.70;8.77;;;;;;;-0.03;70.13;97007.47;6195667;23;20025;-80
2023/01/27 10:36:16;;;;;;;16.92;8.93;;;;;;;-0.05;70.20;97006.75;6195220;23;20028;-79
2023/01/27 10:38:49;;;;;;;15.65;8.55;;;;;;;-0.02;70.12;96998.03;6195137;23;20096;-79
2023/01/27 10:41:28;;;;;;;13.00;7.32;;;;;;;0.02;70.39;96996.06;6194781;23;20020;-81
2023/01/27 10:44:14;;;;;;;15.82;8.63;;;;;;;0.06;69.93;97002.63;6195492;23;20453;-82
2023/01/27 10:46:52;;;;;;;16.38;9.27;;;;;;;0.09;70.20;96994.72;6195748;23;20109;-82
2023/01/27 10:49:24;;;;;;;15.65;8.15;;;;;;;0.12;69.98;96992.75;6194399;23;20063;-83
2023/01/27 10:51:58;;;;;;;19.58;10.57;;;;;;;0.16;70.14;97001.06;6195650;23;20389;-81
2023/01/27 10:54:32;;;;;;;18.33;9.75;;;;;;;0.15;69.94;96996.84;6195559;23;20037;-81
2023/01/27 10:57:06;;;;;;;20.08;10.73;;;;;;;0.16;69.87;97008.78;6193770;23;20021;-83
2023/01/27 10:59:39;;;;;;;17.63;9.80;;;;;;;0.15;69.98;97007.13;6192691;23;20060;-82
2023/01/27 11:02:17;;;;;;;13.93;8.23;;;;;;;0.12;69.68;97007.34;6192559;23;20024;-81
2023/01/27 11:04:48;;;;;;;15.70;9.48;;;;;;;0.11;69.78;97010.81;6193225;23;20075;-78
2023/01/27 11:07:19;;;;;;;19.95;10.50;;;;;;;0.11;70.22;97005.69;6194383;23;20349;-83
2023/01/27 11:09:53;;;;;;;16.65;9.60;;;;;;;0.14;70.49;97001.16;6193516;23;20056;-84
2023/01/27 11:12:29;;;;;;;16.38;9.23;;;;;;;0.19;70.37;96998.28;6193680;23;20021;-81
2023/01/27 11:14:58;;;;;;;16.70;8.88;;;;;;;0.23;70.47;96992.00;6193230;23;20068;-83
2023/01/27 11:17:30;;;;;;;17.98;9.35;;;;;;;0.29;70.20;96990.78;6192511;23;20040;-81
2023/01/27 11:20:05;;;;;;;16.73;9.20;;;;;;;0.33;69.83;96990.44;6191771;23;20063;-79
2023/01/27 11:22:39;;;;;;;18.35;9.38;;;;;;;0.33;70.02;96990.44;6192353;23;20024;-78
2023/01/27 11:25:23;;;;;;;18.63;8.98;;;;;;;0.38;71.33;96977.28;6192643;23;20429;-81
2023/01/27 11:28:12;;;;;;;17.50;10.30;;;;;;;0.43;70.13;96976.97;6191579;23;20044;-79
2023/01/27 11:30:48;;;;;;;18.33;9.27;;;;;;;0.48;69.95;96972.31;6192480;23;20092;-81
2023/01/27 11:33:21;;;;;;;17.50;9.27;;;;;;;0.53;70.00;96973.63;6192702;23;20532;-80
2023/01/27 11:35:50;;;;;;;17.08;9.40;;;;;;;0.58;70.16;96978.41;6192171;23;20536;-79
2023/01/27 11:38:22;;;;;;;16.95;9.10;;;;;;;0.61;69.70;96975.63;6191941;23;20027;-79
2023/01/27 11:40:51;;;;;;;15.20;8.73;;;;;;;0.60;69.68;96976.56;6195253;23;20045;-82
2023/01/27 11:43:23;;;;;;;16.92;9.45;;;;;;;0.59;69.30;96974.91;6191797;23;20023;-82
2023/01/27 11:45:55;;;;;;;14.70;9.02;;;;;;;0.57;69.49;96979.38;6192187;23;20055;-82
2023/01/27 11:48:22;;;;;;;17.60;10.75;;;;;;;0.56;69.63;96977.72;6198834;23;20060;-83
2023/01/27 11:50:50;;;;;;;17.48;9.20;;;;;;;0.57;69.83;96972.47;6207554;23;20032;-79
2023/01/27 11:53:26;;;;;;;16.63;10.43;;;;;;;0.60;71.16;96974.81;6204107;23;20047;-85
2023/01/27 11:55:57;;;;;;;23.50;13.20;;;;;;;0.64;70.24;96972.84;6198420;23;20100;-82
2023/01/27 11:58:27;;;;;;;19.88;10.35;;;;;;;0.61;69.88;96971.34;6197636;23;20032;-82
2023/01/27 12:00:57;;;;;;;23.52;11.10;;;;;;;0.59;69.88;96977.47;6198138;23;20053;-82
2023/01/27 12:03:39;;;;;;;20.73;11.30;;;;;;;0.61;69.70;96983.31;6198383;23;20072;-81
2023/01/27 12:06:14;;;;;;;20.60;11.10;;;;;;;0.66;69.58;96977.88;6198297;23;20059;-79
2023/01/27 12:08:45;;;;;;;20.40;10.90;;;;;;;0.65;69.46;96978.81;6196348;23;20025;-84
2023/01/27 12:11:18;;;;;;;19.27;10.23;;;;;;;0.64;69.43;96983.13;6196485;23;20334;-81